createdAt,value
2022-10-23T00:01:51.592Z,12.19
2022-10-23T00:04:22.142Z,12.21
2022-10-23T00:06:50.642Z,12.20
2022-10-23T00:09:23.164Z,12.20
2022-10-23T00:11:52.823Z,12.19
2022-10-23T00:14:25.193Z,12.18
2022-10-23T00:16:53.858Z,12.17
2022-10-23T00:19:22.267Z,12.17
2022-10-23T00:21:50.721Z,12.16
2022-10-23T00:24:19.203Z,12.16
2022-10-23T00:26:51.164Z,12.15
2022-10-23T00:29:19.750Z,12.15
2022-10-23T00:31:48.040Z,12.16
2022-10-23T00:34:19.672Z,12.16
2022-10-23T00:36:48.057Z,12.12
2022-10-23T00:39:16.390Z,12.11
2022-10-23T00:41:44.930Z,12.13
2022-10-23T00:44:18.965Z,12.15
2022-10-23T00:46:47.714Z,12.17
2022-10-23T00:49:17.033Z,12.17
2022-10-23T00:51:57.438Z,12.17
2022-10-23T00:54:29.844Z,12.14
2022-10-23T00:57:02.522Z,12.11
2022-10-23T00:59:31.577Z,12.07
2022-10-23T01:02:00.841Z,12.02
2022-10-23T01:04:30.266Z,11.95
2022-10-23T01:07:10.722Z,11.93
2022-10-23T01:09:54.217Z,11.91
2022-10-23T01:12:56.218Z,11.88
2022-10-23T01:16:01.734Z,11.88
2022-10-23T01:18:45.370Z,11.87
2022-10-23T01:21:46.413Z,11.85
2022-10-23T01:24:53.002Z,11.83
2022-10-23T01:27:47.737Z,11.80
2022-10-23T01:30:17.746Z,11.78
2022-10-23T01:33:09.746Z,11.78
2022-10-23T01:36:14.767Z,11.76
2022-10-23T01:41:47.238Z,11.79
2022-10-23T01:44:27.843Z,11.80
2022-10-23T01:46:57.993Z,11.79
2022-10-23T01:49:28.880Z,11.79
2022-10-23T01:52:02.794Z,11.77
2022-10-23T01:54:35.976Z,11.77
2022-10-23T01:57:05.697Z,11.78
2022-10-23T01:59:39.806Z,11.78
2022-10-23T02:02:12.302Z,11.80
2022-10-23T02:04:59.398Z,11.79
2022-10-23T02:07:27.930Z,11.83
2022-10-23T02:09:56.569Z,11.82
2022-10-23T02:12:38.261Z,11.81
2022-10-23T02:15:33.277Z,11.80
2022-10-23T02:18:38.202Z,11.81
2022-10-23T02:21:15.805Z,11.85
2022-10-23T02:23:56.558Z,11.87
2022-10-23T02:26:29.347Z,11.90
2022-10-23T02:29:07.547Z,11.93
2022-10-23T02:31:37.579Z,11.96
2022-10-23T02:34:06.046Z,11.97
2022-10-23T02:36:34.420Z,11.97
2022-10-23T02:39:04.800Z,11.98
2022-10-23T02:41:56.398Z,11.99
2022-10-23T02:45:05.293Z,12.02
2022-10-23T02:48:13.525Z,12.05
2022-10-23T02:51:02.949Z,12.09
2022-10-23T02:54:16.413Z,12.10
2022-10-23T02:57:10.449Z,12.04
2022-10-23T02:59:47.903Z,12.03
2022-10-23T03:02:33.455Z,12.02
2022-10-23T03:05:04.920Z,11.94
2022-10-23T03:07:34.854Z,11.91
2022-10-23T03:10:09.557Z,11.91
2022-10-23T03:12:38.883Z,11.92
2022-10-23T03:15:08.625Z,11.91
2022-10-23T03:17:37.262Z,11.89
2022-10-23T03:20:07.977Z,11.88
2022-10-23T03:22:37.716Z,11.92
2022-10-23T03:25:07.439Z,11.93
2022-10-23T03:27:37.546Z,11.93
2022-10-23T03:30:08.678Z,11.95
2022-10-23T03:32:38.484Z,11.94
2022-10-23T03:35:08.225Z,11.91
2022-10-23T03:37:36.589Z,11.91
2022-10-23T03:40:06.580Z,11.82
2022-10-23T03:42:36.109Z,11.80
2022-10-23T03:45:06.023Z,11.76
2022-10-23T03:47:35.716Z,11.74
2022-10-23T03:50:05.274Z,11.75
2022-10-23T03:52:34.430Z,11.75
2022-10-23T03:55:03.101Z,11.74
2022-10-23T03:57:31.689Z,11.75
2022-10-23T04:00:00.092Z,11.76
2022-10-23T04:02:31.102Z,11.75
2022-10-23T04:04:59.399Z,11.68
2022-10-23T04:07:29.518Z,11.64
2022-10-23T04:10:00.906Z,11.60
2022-10-23T04:12:29.656Z,11.55
2022-10-23T04:14:58.012Z,11.53
2022-10-23T04:20:00.406Z,11.40
2022-10-23T04:22:29.111Z,11.23
2022-10-23T04:24:57.485Z,11.20
2022-10-23T04:27:25.850Z,11.13
2022-10-23T04:29:56.816Z,11.07
2022-10-23T04:32:28.541Z,10.98
2022-10-23T04:34:58.170Z,10.93
2022-10-23T04:37:26.838Z,10.94
2022-10-23T04:39:55.231Z,10.92
2022-10-23T04:42:23.620Z,10.88
2022-10-23T04:44:52.499Z,10.88
2022-10-23T04:47:21.017Z,10.90
2022-10-23T04:49:58.756Z,10.93
2022-10-23T04:52:45.971Z,10.96
2022-10-23T04:55:58.397Z,10.94
2022-10-23T04:59:16.350Z,10.94
2022-10-23T05:01:45.310Z,10.89
2022-10-23T05:04:15.052Z,10.88
2022-10-23T05:07:02.272Z,10.89
2022-10-23T05:09:48.368Z,10.90
2022-10-23T05:12:57.705Z,10.91
2022-10-23T05:15:26.274Z,10.93
2022-10-23T05:18:08.842Z,10.93
2022-10-23T05:20:39.313Z,10.95
2022-10-23T05:23:13.848Z,10.95
2022-10-23T05:25:45.585Z,10.95
2022-10-23T05:28:17.448Z,10.97
2022-10-23T05:30:46.195Z,10.99
2022-10-23T05:33:15.065Z,11.02
2022-10-23T05:35:45.553Z,11.04
2022-10-23T05:38:16.754Z,11.08
2022-10-23T05:40:45.505Z,11.11
2022-10-23T05:43:19.616Z,11.10
2022-10-23T05:45:51.372Z,11.11
2022-10-23T05:48:34.279Z,11.13
2022-10-23T05:51:22.405Z,11.16
2022-10-23T05:53:59.517Z,11.19
2022-10-23T05:56:41.819Z,11.25
2022-10-23T05:59:34.467Z,11.30
2022-10-23T06:02:21.095Z,11.33
2022-10-23T06:04:53.264Z,11.36
2022-10-23T06:08:08.415Z,11.37
2022-10-23T06:10:37.101Z,11.34
2022-10-23T06:13:07.428Z,11.35
2022-10-23T06:15:35.907Z,11.38
2022-10-23T06:18:15.749Z,11.42
2022-10-23T06:20:57.445Z,11.45
2022-10-23T06:23:27.648Z,11.44
2022-10-23T06:26:16.841Z,11.53
2022-10-23T06:29:04.050Z,11.58
2022-10-23T06:31:33.030Z,11.65
2022-10-23T06:34:01.401Z,11.72
2022-10-23T06:36:31.530Z,11.78
2022-10-23T06:39:43.385Z,11.84
2022-10-23T06:42:16.017Z,11.89
2022-10-23T06:44:57.648Z,11.92
2022-10-23T06:47:44.750Z,11.93
2022-10-23T06:50:31.634Z,11.94
2022-10-23T06:53:01.230Z,11.99
2022-10-23T06:55:30.546Z,12.02
2022-10-23T06:57:59.616Z,12.08
2022-10-23T07:00:28.074Z,12.14
2022-10-23T07:02:57.323Z,12.15
2022-10-23T07:05:26.718Z,12.20
2022-10-23T07:07:55.098Z,12.23
2022-10-23T07:10:26.855Z,12.25
2022-10-23T07:13:01.363Z,12.27
2022-10-23T07:15:49.793Z,12.22
2022-10-23T07:18:24.418Z,12.24
2022-10-23T07:21:35.408Z,12.17
2022-10-23T07:24:31.657Z,12.16
2022-10-23T07:27:01.573Z,12.12
2022-10-23T07:29:31.061Z,12.09
2022-10-23T07:32:04.669Z,12.09
2022-10-23T07:35:06.703Z,12.07
2022-10-23T07:37:36.342Z,12.06
2022-10-23T07:40:06.969Z,12.10
2022-10-23T07:42:39.766Z,12.11
2022-10-23T07:45:10.144Z,12.12
2022-10-23T07:47:39.928Z,12.15
2022-10-23T07:50:10.105Z,12.19
2022-10-23T07:52:38.894Z,12.23
2022-10-23T07:55:14.853Z,12.27
2022-10-23T07:57:52.313Z,12.29
2022-10-23T08:01:32.241Z,12.31
2022-10-23T08:04:01.198Z,12.35
2022-10-23T08:06:30.121Z,12.39
2022-10-23T08:08:59.984Z,12.45
2022-10-23T08:11:35.882Z,12.49
2022-10-23T08:14:08.477Z,12.55
2022-10-23T08:16:38.935Z,12.60
2022-10-23T08:19:27.212Z,12.67
2022-10-23T08:21:57.418Z,12.72
2022-10-23T08:24:25.998Z,12.78
2022-10-23T08:26:54.387Z,12.83
2022-10-23T08:29:24.515Z,12.87
2022-10-23T08:31:56.681Z,12.93
2022-10-23T08:35:08.406Z,13.03
2022-10-23T08:37:37.881Z,13.10
2022-10-23T08:40:07.705Z,13.16
2022-10-23T08:43:47.330Z,13.20
2022-10-23T08:46:31.987Z,13.23
2022-10-23T08:50:14.375Z,13.26
2022-10-23T08:53:05.708Z,13.27
2022-10-23T08:55:38.922Z,13.30
2022-10-23T08:58:18.953Z,13.31
2022-10-23T09:00:49.872Z,13.34
2022-10-23T09:03:18.780Z,13.33
2022-10-23T09:06:23.616Z,13.32
2022-10-23T09:09:29.698Z,13.37
2022-10-23T09:12:21.389Z,13.42
2022-10-23T09:15:13.148Z,13.44
2022-10-23T09:17:44.525Z,13.46
2022-10-23T09:20:26.838Z,13.47
2022-10-23T09:23:00.825Z,13.50
2022-10-23T09:25:37.123Z,13.55
2022-10-23T09:28:06.620Z,13.64
2022-10-23T09:30:42.177Z,13.73
2022-10-23T09:33:22.589Z,13.83
2022-10-23T09:36:12.677Z,13.93
2022-10-23T09:38:46.911Z,14.00
2022-10-23T09:41:36.002Z,14.03
2022-10-23T09:44:20.612Z,14.04
2022-10-23T09:46:54.101Z,14.06
2022-10-23T09:49:23.986Z,14.08
2022-10-23T09:52:30.890Z,14.10
2022-10-23T09:55:18.772Z,14.12
2022-10-23T09:57:47.843Z,14.14
2022-10-23T10:00:26.547Z,14.15
2022-10-23T10:03:03.621Z,14.20
2022-10-23T10:06:27.308Z,14.27
2022-10-23T10:09:16.507Z,14.36
2022-10-23T10:11:52.261Z,14.42
2022-10-23T10:14:45.317Z,14.47
2022-10-23T10:17:35.504Z,14.49
2022-10-23T10:20:27.963Z,14.53
2022-10-23T10:23:42.187Z,14.60
2022-10-23T10:26:22.835Z,14.67
2022-10-23T10:29:08.682Z,14.71
2022-10-23T10:32:06.322Z,14.74
2022-10-23T10:35:05.334Z,14.75
2022-10-23T10:38:29.404Z,14.77
2022-10-23T10:41:19.812Z,14.79
2022-10-23T10:44:32.632Z,14.85
2022-10-23T10:47:22.596Z,14.88
2022-10-23T10:50:07.894Z,14.91
2022-10-23T10:53:28.245Z,15.01
2022-10-23T10:56:00.265Z,15.10
2022-10-23T10:58:46.038Z,15.17
2022-10-23T11:01:28.773Z,15.20
2022-10-23T11:04:13.254Z,15.18
2022-10-23T11:06:46.242Z,15.20
2022-10-23T11:09:21.769Z,15.20
2022-10-23T11:11:50.528Z,15.20
2022-10-23T11:14:25.540Z,15.17
2022-10-23T11:17:12.273Z,15.18
2022-10-23T11:20:06.234Z,15.13
2022-10-23T11:22:50.790Z,15.13
2022-10-23T11:25:50.092Z,15.12
2022-10-23T11:28:35.673Z,15.08
2022-10-23T11:31:39.653Z,15.03
2022-10-23T11:34:31.316Z,15.01
2022-10-23T11:37:01.946Z,15.03
2022-10-23T11:39:36.977Z,15.14
2022-10-23T11:42:10.578Z,15.23
2022-10-23T11:44:50.332Z,15.30
2022-10-23T11:47:40.436Z,15.35
2022-10-23T11:50:08.954Z,15.38
2022-10-23T11:53:18.353Z,15.39
2022-10-23T11:56:11.815Z,15.44
2022-10-23T11:58:51.974Z,15.50
2022-10-23T12:01:44.488Z,15.56
2022-10-23T12:04:13.000Z,15.58
2022-10-23T12:06:55.788Z,15.62
2022-10-23T12:09:31.848Z,15.60
2022-10-23T12:12:09.551Z,15.58
2022-10-23T12:14:51.853Z,15.60
2022-10-23T12:17:23.325Z,15.56
2022-10-23T12:20:04.266Z,15.62
2022-10-23T12:22:49.861Z,15.70
2022-10-23T12:25:45.598Z,15.78
2022-10-23T12:28:43.244Z,15.84
2022-10-23T12:31:36.012Z,15.83
2022-10-23T12:34:36.634Z,15.77
2022-10-23T12:37:45.062Z,15.81
2022-10-23T12:40:13.631Z,15.80
2022-10-23T12:42:52.236Z,15.81
2022-10-23T12:45:40.233Z,15.86
2022-10-23T12:48:21.652Z,15.84
2022-10-23T12:50:53.239Z,15.80
2022-10-23T12:53:23.402Z,15.74
2022-10-23T12:58:35.285Z,15.58
2022-10-23T13:01:07.432Z,15.57
2022-10-23T13:03:38.429Z,15.53
2022-10-23T13:06:07.818Z,15.51
2022-10-23T13:08:47.098Z,15.42
2022-10-23T13:11:31.987Z,15.37
2022-10-23T13:14:02.406Z,15.35
2022-10-23T13:16:30.783Z,15.31
2022-10-23T13:18:59.148Z,15.35
2022-10-23T13:21:29.883Z,15.38
2022-10-23T13:23:58.466Z,15.44
2022-10-23T13:26:45.451Z,15.49
2022-10-23T13:29:34.864Z,15.55
2022-10-23T13:32:22.709Z,15.61
2022-10-23T13:35:04.145Z,15.68
2022-10-23T13:40:28.164Z,15.75
2022-10-23T13:42:57.461Z,15.81
2022-10-23T13:45:26.804Z,15.87
2022-10-23T13:47:55.057Z,15.94
2022-10-23T13:50:23.418Z,16.03
2022-10-23T13:52:53.018Z,16.08
2022-10-23T13:55:26.630Z,16.15
2022-10-23T13:57:54.902Z,16.21
2022-10-23T14:00:23.284Z,16.18
2022-10-23T14:02:51.695Z,16.12
2022-10-23T14:05:20.359Z,16.19
2022-10-23T14:07:48.739Z,16.19
2022-10-23T14:10:17.036Z,16.19
2022-10-23T14:12:45.743Z,16.10
2022-10-23T14:15:14.488Z,16.00
2022-10-23T14:17:42.805Z,15.89
2022-10-23T14:20:11.827Z,15.76
2022-10-23T14:22:40.270Z,15.66
2022-10-23T14:25:09.012Z,15.53
2022-10-23T14:27:37.389Z,15.40
2022-10-23T14:30:06.785Z,15.35
2022-10-23T14:32:35.188Z,15.29
2022-10-23T14:35:04.153Z,15.24
2022-10-23T14:37:34.125Z,15.18
2022-10-23T14:40:04.607Z,15.15
2022-10-23T14:42:34.636Z,15.06
2022-10-23T14:45:03.425Z,15.01
2022-10-23T14:47:32.409Z,14.93
2022-10-23T14:50:00.796Z,14.83
2022-10-23T14:52:29.174Z,14.73
2022-10-23T14:54:57.533Z,14.70
2022-10-23T14:57:25.776Z,14.68
2022-10-23T14:59:54.018Z,14.66
2022-10-23T15:02:22.483Z,14.60
2022-10-23T15:04:50.758Z,14.57
2022-10-23T15:07:19.124Z,14.54
2022-10-23T15:09:47.501Z,14.48
2022-10-23T15:12:15.778Z,14.42
2022-10-23T15:14:44.243Z,14.39
2022-10-23T15:17:15.685Z,14.32
2022-10-23T15:19:44.314Z,14.22
2022-10-23T15:22:12.726Z,14.17
2022-10-23T15:24:41.067Z,14.11
2022-10-23T15:29:43.334Z,14.01
2022-10-23T15:32:13.355Z,13.99
2022-10-23T15:34:43.074Z,13.98
2022-10-23T15:37:12.153Z,13.97
2022-10-23T15:39:40.498Z,13.95
2022-10-23T15:42:10.881Z,13.93
2022-10-23T15:44:40.435Z,13.90
2022-10-23T15:47:08.664Z,13.89
2022-10-23T15:49:37.349Z,13.88
2022-10-23T15:52:06.214Z,13.87
2022-10-23T15:54:35.475Z,13.85
2022-10-23T15:57:04.302Z,13.85
2022-10-23T15:59:33.053Z,13.82
2022-10-23T16:02:01.426Z,13.81
2022-10-23T16:04:30.346Z,13.79
2022-10-23T16:06:58.650Z,13.78
2022-10-23T16:09:27.118Z,13.75
2022-10-23T16:11:55.493Z,13.73
2022-10-23T16:14:24.342Z,13.71
2022-10-23T16:16:52.675Z,13.69
2022-10-23T16:19:21.034Z,13.68
2022-10-23T16:21:49.417Z,13.68
2022-10-23T16:24:17.735Z,13.67
2022-10-23T16:26:50.579Z,13.67
2022-10-23T16:29:22.171Z,13.65
2022-10-23T16:31:50.987Z,13.64
2022-10-23T16:34:19.968Z,13.63
2022-10-23T16:36:48.853Z,13.59
2022-10-23T16:39:58.095Z,13.55
2022-10-23T16:42:45.802Z,13.48
2022-10-23T16:45:26.346Z,13.43
2022-10-23T16:47:55.581Z,13.36
2022-10-23T16:50:23.925Z,13.32
2022-10-23T16:52:55.473Z,13.28
2022-10-23T16:55:24.175Z,13.25
2022-10-23T16:57:52.541Z,13.24
2022-10-23T17:00:22.864Z,13.22
2022-10-23T17:02:51.105Z,13.22
2022-10-23T17:05:19.405Z,13.21
2022-10-23T17:07:47.694Z,13.21
2022-10-23T17:10:16.245Z,13.17
2022-10-23T17:12:44.654Z,13.14
2022-10-23T17:15:12.929Z,13.12
2022-10-23T17:17:41.510Z,13.11
2022-10-23T17:20:11.744Z,13.09
2022-10-23T17:22:40.112Z,13.09
2022-10-23T17:25:09.637Z,13.07
2022-10-23T17:27:37.898Z,13.06
2022-10-23T17:30:12.375Z,13.07
2022-10-23T17:32:41.534Z,13.08
2022-10-23T17:35:10.696Z,13.07
2022-10-23T17:37:39.090Z,13.05
2022-10-23T17:40:08.624Z,13.05
2022-10-23T17:42:36.766Z,13.03
2022-10-23T17:45:06.027Z,12.99
2022-10-23T17:47:34.537Z,12.97
2022-10-23T17:50:03.644Z,12.97
2022-10-23T17:52:32.826Z,12.96
2022-10-23T17:55:01.130Z,12.94
2022-10-23T17:57:29.478Z,12.90
2022-10-23T17:59:57.733Z,12.86
2022-10-23T18:02:27.064Z,12.84
2022-10-23T18:04:55.433Z,12.78
2022-10-23T18:07:25.891Z,12.78
2022-10-23T18:09:54.549Z,12.78
2022-10-23T18:12:23.181Z,12.78
2022-10-23T18:14:51.455Z,12.77
2022-10-23T18:17:19.769Z,12.79
2022-10-23T18:19:51.535Z,12.82
2022-10-23T18:22:19.816Z,12.86
2022-10-23T18:24:48.210Z,12.89
2022-10-23T18:27:16.470Z,12.90
2022-10-23T18:29:45.149Z,12.90
2022-10-23T18:32:13.446Z,12.89
2022-10-23T18:34:41.929Z,12.90
2022-10-23T18:37:10.408Z,12.91
2022-10-23T18:39:38.887Z,12.90
2022-10-23T18:42:07.270Z,12.89
2022-10-23T18:44:35.658Z,12.86
2022-10-23T18:47:04.287Z,12.85
2022-10-23T18:49:32.810Z,12.84
2022-10-23T18:52:01.188Z,12.81
2022-10-23T18:54:30.057Z,12.79
2022-10-23T18:56:58.355Z,12.78
2022-10-23T18:59:26.720Z,12.77
2022-10-23T19:01:55.328Z,12.76
2022-10-23T19:04:23.902Z,12.76
2022-10-23T19:06:52.364Z,12.75
2022-10-23T19:09:21.187Z,12.75
2022-10-23T19:11:49.649Z,12.76
2022-10-23T19:14:18.130Z,12.75
2022-10-23T19:16:58.625Z,12.72
2022-10-23T19:19:41.901Z,12.70
2022-10-23T19:22:12.881Z,12.69
2022-10-23T19:24:47.280Z,12.70
2022-10-23T19:27:15.643Z,12.71
2022-10-23T19:29:46.866Z,12.72
2022-10-23T19:32:15.582Z,12.72
2022-10-23T19:34:44.357Z,12.70
2022-10-23T19:39:46.073Z,12.68
2022-10-23T19:42:14.718Z,12.67
2022-10-23T19:44:42.969Z,12.63
2022-10-23T19:47:11.388Z,12.62
2022-10-23T19:49:39.777Z,12.61
2022-10-23T19:52:08.060Z,12.58
2022-10-23T19:54:37.956Z,12.58
2022-10-23T19:57:06.196Z,12.56
2022-10-23T19:59:34.918Z,12.54
2022-10-23T20:02:03.715Z,12.55
2022-10-23T20:04:32.193Z,12.54
2022-10-23T20:07:00.709Z,12.51
2022-10-23T20:09:29.437Z,12.48
2022-10-23T20:11:57.830Z,12.46
2022-10-23T20:14:26.662Z,12.46
2022-10-23T20:16:56.103Z,12.44
2022-10-23T20:19:24.485Z,12.44
2022-10-23T20:21:52.886Z,12.40
2022-10-23T20:24:22.060Z,12.39
2022-10-23T20:26:54.643Z,12.36
2022-10-23T20:29:24.993Z,12.34
2022-10-23T20:31:54.458Z,12.32
2022-10-23T20:34:22.659Z,12.28
2022-10-23T20:36:50.939Z,12.25
2022-10-23T20:39:24.664Z,12.22
2022-10-23T20:41:55.472Z,12.20
2022-10-23T20:44:24.320Z,12.20
2022-10-23T20:46:53.250Z,12.20
2022-10-23T20:49:23.134Z,12.20
2022-10-23T20:51:56.858Z,12.20
2022-10-23T20:54:27.705Z,12.21
2022-10-23T20:56:59.641Z,12.22
2022-10-23T20:59:27.985Z,12.23
2022-10-23T21:01:57.401Z,12.22
2022-10-23T21:04:28.186Z,12.20
2022-10-23T21:07:10.077Z,12.15
2022-10-23T21:09:40.327Z,12.12
2022-10-23T21:12:09.584Z,12.11
2022-10-23T21:14:38.484Z,12.06
2022-10-23T21:17:08.590Z,12.05
2022-10-23T21:19:37.096Z,12.03
2022-10-23T21:22:05.375Z,12.03
2022-10-23T21:24:33.639Z,12.02
2022-10-23T21:27:02.415Z,12.01
2022-10-23T21:29:30.805Z,11.98
2022-10-23T21:32:03.989Z,11.93
2022-10-23T21:34:32.371Z,11.93
2022-10-23T21:37:17.882Z,11.92
2022-10-23T21:39:46.529Z,11.90
2022-10-23T21:42:15.564Z,11.90
2022-10-23T21:44:44.123Z,11.89
2022-10-23T21:47:12.366Z,11.89
2022-10-23T21:49:40.661Z,11.86
2022-10-23T21:52:08.945Z,11.82
2022-10-23T21:54:37.294Z,11.78
2022-10-23T21:57:05.794Z,11.74
2022-10-23T21:59:35.950Z,11.73
2022-10-23T22:02:04.947Z,11.70
2022-10-23T22:04:33.411Z,11.68
2022-10-23T22:07:03.158Z,11.67
2022-10-23T22:09:33.615Z,11.66
2022-10-23T22:12:02.127Z,11.64
2022-10-23T22:14:31.101Z,11.62
2022-10-23T22:16:59.581Z,11.60
2022-10-23T22:19:27.972Z,11.60
2022-10-23T22:21:56.350Z,11.59
2022-10-23T22:24:25.024Z,11.59
2022-10-23T22:26:56.676Z,11.59
2022-10-23T22:29:29.552Z,11.56
2022-10-23T22:31:58.722Z,11.53
2022-10-23T22:37:18.745Z,11.48
2022-10-23T22:39:52.337Z,11.46
2022-10-23T22:42:20.941Z,11.42
2022-10-23T22:44:49.337Z,11.37
2022-10-23T22:47:17.715Z,11.35
2022-10-23T22:49:46.080Z,11.34
2022-10-23T22:52:14.471Z,11.34
2022-10-23T22:54:42.836Z,11.33
2022-10-23T22:57:11.229Z,11.34
2022-10-23T22:59:39.521Z,11.36
2022-10-23T23:02:08.601Z,11.35
2022-10-23T23:04:38.876Z,11.36
2022-10-23T23:07:11.607Z,11.37
2022-10-23T23:09:43.098Z,11.34
2022-10-23T23:12:14.307Z,11.38
2022-10-23T23:14:43.273Z,11.40
2022-10-23T23:17:12.374Z,11.42
2022-10-23T23:19:40.869Z,11.45
2022-10-23T23:22:09.324Z,11.47
2022-10-23T23:24:37.918Z,11.49
2022-10-23T23:27:06.208Z,11.50
2022-10-23T23:29:34.689Z,11.49
2022-10-23T23:32:02.939Z,11.47
2022-10-23T23:34:31.341Z,11.46
2022-10-23T23:37:00.701Z,11.45
2022-10-23T23:39:29.214Z,11.42
2022-10-23T23:41:57.794Z,11.39
2022-10-23T23:44:26.028Z,11.35
2022-10-23T23:46:54.459Z,11.32
2022-10-23T23:49:23.148Z,11.28
2022-10-23T23:51:51.814Z,11.23
2022-10-23T23:54:20.212Z,11.19
2022-10-23T23:56:48.601Z,11.17
2022-10-23T23:59:16.950Z,11.15
